Time;durP1;ratioP1;P1;durP2;ratioP2;P2;SDS_P1;SDS_P2;PMS_P1;PMS_P2;Temp;Humidity;BMP_temperature;BMP_pressure;BME280_temperature;BME280_humidity;BME280_pressure;Samples;Min_cycle;Max_cycle;Signal;HPM_P1;HPM_P2
2021/08/22 00:00:32;;;;;;;26.40;23.63;;;17.80;95.30;;;;;;5031144;28;20107;-71
2021/08/22 00:02:59;;;;;;;21.63;19.53;;;17.80;95.30;;;;;;5031398;28;20042;-71
2021/08/22 00:05:25;;;;;;;26.13;23.53;;;17.80;95.40;;;;;;5030771;28;20060;-71
2021/08/22 00:07:51;;;;;;;20.83;18.67;;;17.80;95.30;;;;;;5030976;28;20094;-71
2021/08/22 00:10:17;;;;;;;25.00;22.60;;;17.80;95.30;;;;;;5031212;28;20053;-70
2021/08/22 00:12:42;;;;;;;22.80;20.50;;;17.80;95.30;;;;;;5029916;28;20071;-71
2021/08/22 00:15:09;;;;;;;27.90;24.77;;;17.80;95.40;;;;;;5031028;28;20061;-70
2021/08/22 00:17:35;;;;;;;28.40;25.50;;;17.80;95.40;;;;;;5031150;28;20049;-70
2021/08/22 00:20:01;;;;;;;27.03;24.33;;;17.80;95.40;;;;;;5029738;28;20065;-70
2021/08/22 00:22:27;;;;;;;25.97;23.50;;;17.80;95.50;;;;;;5030988;28;20414;-70
2021/08/22 00:24:52;;;;;;;24.80;22.27;;;17.80;95.50;;;;;;5030801;28;20129;-71
2021/08/22 00:27:18;;;;;;;23.53;21.03;;;17.80;95.50;;;;;;5029860;28;20050;-70
2021/08/22 00:29:44;;;;;;;26.93;24.13;;;17.80;95.50;;;;;;5030682;28;20140;-71
2021/08/22 00:32:10;;;;;;;29.53;26.40;;;17.80;95.50;;;;;;5030939;28;20057;-70
2021/08/22 00:34:36;;;;;;;27.63;24.73;;;17.80;95.60;;;;;;5030165;28;20060;-70
2021/08/22 00:37:01;;;;;;;24.67;21.97;;;17.80;95.60;;;;;;5030676;28;20057;-71
2021/08/22 00:39:27;;;;;;;28.47;25.77;;;17.80;95.60;;;;;;5031117;28;20049;-70
2021/08/22 00:41:54;;;;;;;26.23;23.57;;;17.80;95.60;;;;;;5032797;28;20057;-70
2021/08/22 00:44:21;;;;;;;27.50;24.80;;;17.80;95.60;;;;;;5035153;28;20107;-70
2021/08/22 00:46:49;;;;;;;25.70;23.03;;;17.80;95.70;;;;;;5034441;28;20053;-71
2021/08/22 00:49:15;;;;;;;25.27;22.87;;;17.80;95.70;;;;;;5033690;28;20042;-70
2021/08/22 00:51:42;;;;;;;28.13;25.03;;;17.80;95.70;;;;;;5034262;28;20060;-71
2021/08/22 00:54:09;;;;;;;28.93;26.07;;;17.80;95.70;;;;;;5034667;28;20065;-70
2021/08/22 00:56:35;;;;;;;23.50;21.20;;;17.70;95.80;;;;;;5033714;28;20148;-70
2021/08/22 00:59:03;;;;;;;29.63;26.67;;;17.70;95.80;;;;;;5034250;28;20132;-71
2021/08/22 01:01:30;;;;;;;29.10;26.20;;;17.70;95.80;;;;;;5034279;28;20132;-71
2021/08/22 01:04:14;;;;;;;29.43;24.93;;;17.70;95.80;;;;;;5033480;28;20053;-70
2021/08/22 01:07:04;;;;;;;28.53;25.57;;;17.70;95.80;;;;;;5034053;28;20050;-71
2021/08/22 01:09:40;;;;;;;28.13;25.17;;;17.70;95.80;;;;;;5033648;28;20485;-71
2021/08/22 01:12:20;;;;;;;28.97;26.03;;;17.70;95.90;;;;;;5034019;28;20139;-70
2021/08/22 01:14:49;;;;;;;21.73;19.55;;;17.70;95.90;;;;;;5033837;28;20119;-71
2021/08/22 01:17:18;;;;;;;27.73;24.33;;;17.70;95.90;;;;;;5033428;28;20447;-70
2021/08/22 01:20:08;;;;;;;28.33;25.40;;;17.70;95.90;;;;;;5033910;28;20155;-70
2021/08/22 01:22:36;;;;;;;28.77;25.77;;;17.70;95.90;;;;;;5033835;28;20427;-70
2021/08/22 01:25:03;;;;;;;24.23;21.73;;;17.70;96.00;;;;;;5033034;28;20049;-70
2021/08/22 01:27:30;;;;;;;30.27;27.03;;;17.70;96.00;;;;;;5034270;28;20050;-70
2021/08/22 01:30:13;;;;;;;30.47;27.33;;;17.60;96.00;;;;;;5032805;28;20414;-70
2021/08/22 01:32:40;;;;;;;32.10;28.63;;;17.70;96.10;;;;;;5033522;28;20136;-71
2021/08/22 01:35:08;;;;;;;31.70;28.40;;;17.60;96.10;;;;;;5033697;28;20168;-70
2021/08/22 01:37:37;;;;;;;30.77;27.70;;;17.70;96.10;;;;;;5033711;28;20069;-70
2021/08/22 01:40:05;;;;;;;31.03;27.93;;;17.70;96.20;;;;;;5033867;28;20049;-70
2021/08/22 01:42:33;;;;;;;30.07;26.93;;;17.70;96.20;;;;;;5033530;28;20054;-70
2021/08/22 01:45:02;;;;;;;29.07;26.13;;;17.70;96.20;;;;;;5032409;28;20140;-70
2021/08/22 01:47:31;;;;;;;30.80;27.43;;;17.70;96.20;;;;;;5034490;28;20053;-70
2021/08/22 01:49:57;;;;;;;31.27;28.03;;;17.60;96.20;;;;;;5033227;28;20049;-71
2021/08/22 01:52:23;;;;;;;29.63;25.23;;;17.70;96.20;;;;;;5031812;28;20455;-70
2021/08/22 01:54:49;;;;;;;31.00;27.70;;;17.70;96.30;;;;;;5033483;28;20050;-70
2021/08/22 01:57:15;;;;;;;28.60;25.70;;;17.60;96.30;;;;;;5033700;28;20056;-71
2021/08/22 01:59:41;;;;;;;31.00;27.97;;;17.60;96.30;;;;;;5032822;28;20107;-71
2021/08/22 02:02:06;;;;;;;32.23;28.80;;;17.70;96.30;;;;;;5034352;28;20077;-70
2021/08/22 02:04:40;;;;;;;29.77;26.80;;;17.70;96.30;;;;;;5033090;28;20080;-70
2021/08/22 02:07:12;;;;;;;28.07;25.17;;;17.70;96.30;;;;;;5032509;28;20069;-70
2021/08/22 02:10:00;;;;;;;31.53;28.13;;;17.60;96.30;;;;;;5033082;28;20122;-70
2021/08/22 02:12:25;;;;;;;31.47;28.27;;;17.70;96.30;;;;;;5032395;28;20061;-71
2021/08/22 02:15:01;;;;;;;32.43;29.13;;;17.60;96.40;;;;;;5032646;28;20439;-71
2021/08/22 02:17:32;;;;;;;32.90;29.33;;;17.60;96.40;;;;;;5032820;28;20057;-71
2021/08/22 02:20:01;;;;;;;30.02;26.85;;;17.70;96.50;;;;;;5031649;28;20065;-71
2021/08/22 02:22:27;;;;;;;34.30;31.00;;;17.70;96.50;;;;;;5032736;28;20045;-72
2021/08/22 02:24:53;;;;;;;33.13;29.90;;;17.70;96.50;;;;;;5032630;28;20050;-71
2021/08/22 02:27:19;;;;;;;31.10;27.80;;;17.70;96.50;;;;;;5032018;28;20140;-71
2021/08/22 02:29:46;;;;;;;32.73;29.30;;;17.70;96.40;;;;;;5032429;28;20406;-71
2021/08/22 02:32:12;;;;;;;31.83;28.53;;;17.70;96.50;;;;;;5032626;28;20147;-71
2021/08/22 02:34:38;;;;;;;32.13;28.87;;;17.70;96.50;;;;;;5031973;28;20509;-72
2021/08/22 02:37:05;;;;;;;30.57;27.43;;;17.80;96.60;;;;;;5032351;28;20058;-71
2021/08/22 02:39:30;;;;;;;31.87;28.53;;;17.80;96.70;;;;;;5032443;28;20124;-71
2021/08/22 02:41:56;;;;;;;34.87;31.47;;;17.70;96.70;;;;;;5031476;28;20056;-71
2021/08/22 02:44:22;;;;;;;34.23;30.73;;;17.80;96.70;;;;;;5032280;28;20049;-71
2021/08/22 02:46:48;;;;;;;35.97;32.37;;;17.70;96.80;;;;;;5031855;28;20512;-71
2021/08/22 02:49:13;;;;;;;36.87;33.07;;;17.80;96.90;;;;;;5032176;28;20053;-71
2021/08/22 02:51:39;;;;;;;37.03;33.13;;;17.80;96.90;;;;;;5032105;28;20506;-71
2021/08/22 02:54:05;;;;;;;35.67;32.17;;;17.80;97.00;;;;;;5032580;28;20052;-71
2021/08/22 02:56:30;;;;;;;37.40;33.67;;;17.80;97.10;;;;;;5031805;28;20050;-71
2021/08/22 02:58:56;;;;;;;39.07;35.17;;;17.80;97.10;;;;;;5032077;28;20131;-71
2021/08/22 03:01:22;;;;;;;37.57;33.77;;;17.80;97.20;;;;;;5031535;28;20501;-71
2021/08/22 03:03:47;;;;;;;34.20;30.63;;;17.70;97.30;;;;;;5031994;28;20045;-71
2021/08/22 03:06:13;;;;;;;39.87;35.57;;;17.70;97.50;;;;;;5032347;28;20050;-71
2021/08/22 03:08:38;;;;;;;41.13;36.73;;;17.60;97.60;;;;;;5031302;28;20064;-72
2021/08/22 03:11:04;;;;;;;41.70;35.10;;;17.60;97.80;;;;;;5031979;28;20122;-70
2021/08/22 03:13:30;;;;;;;43.63;37.03;;;17.60;97.90;;;;;;5032442;28;20057;-71
2021/08/22 03:15:56;;;;;;;33.93;30.37;;;17.60;98.00;;;;;;5031110;28;20114;-72
2021/08/22 03:18:21;;;;;;;35.00;31.30;;;17.60;98.10;;;;;;5032131;28;20045;-72
2021/08/22 03:20:47;;;;;;;44.17;39.53;;;17.60;98.10;;;;;;5032162;28;20128;-72
2021/08/22 03:23:13;;;;;;;43.60;38.23;;;17.50;98.20;;;;;;5031578;28;20209;-72
2021/08/22 03:25:38;;;;;;;49.87;42.40;;;17.50;98.40;;;;;;5032256;28;20069;-72
2021/08/22 03:28:04;;;;;;;50.53;41.47;;;17.50;98.50;;;;;;5032613;28;20109;-72
2021/08/22 03:30:30;;;;;;;40.10;34.67;;;17.50;98.60;;;;;;5031565;28;20042;-72
2021/08/22 03:32:56;;;;;;;51.37;43.60;;;17.40;98.70;;;;;;5031813;28;20071;-71
2021/08/22 03:35:22;;;;;;;49.70;41.23;;;17.50;99.20;;;;;;5032117;28;20042;-71
2021/08/22 03:37:48;;;;;;;52.10;42.63;;;17.40;98.80;;;;;;5031362;28;20072;-71
2021/08/22 03:40:13;;;;;;;55.30;42.90;;;17.40;98.90;;;;;;5032231;28;20474;-71
2021/08/22 03:42:39;;;;;;;48.30;41.40;;;17.40;99.00;;;;;;5032201;28;20453;-71
2021/08/22 03:45:06;;;;;;;55.13;43.93;;;17.40;99.00;;;;;;5031332;28;20057;-71
2021/08/22 03:47:31;;;;;;;53.47;44.13;;;17.40;99.00;;;;;;5032166;28;20128;-71
2021/08/22 03:49:57;;;;;;;58.63;45.30;;;17.40;99.10;;;;;;5032043;28;20084;-71
2021/08/22 03:52:23;;;;;;;55.30;45.20;;;17.40;99.20;;;;;;5031372;28;20068;-71
2021/08/22 03:54:48;;;;;;;60.33;47.40;;;17.40;99.40;;;;;;5032010;28;20069;-71
2021/08/22 03:57:14;;;;;;;57.87;43.77;;;17.30;99.40;;;;;;5031825;28;20084;-71
2021/08/22 03:59:40;;;;;;;57.87;44.93;;;17.30;99.50;;;;;;5031086;28;20491;-71
2021/08/22 04:02:06;;;;;;;51.17;41.73;;;17.30;99.50;;;;;;5031783;28;20111;-71
2021/08/22 04:04:32;;;;;;;40.17;35.70;;;17.30;99.60;;;;;;5031697;28;20049;-71
2021/08/22 04:06:58;;;;;;;54.50;43.93;;;17.30;99.60;;;;;;5032271;28;20042;-71
2021/08/22 04:09:25;;;;;;;53.80;46.10;;;17.30;99.70;;;;;;5032846;28;20080;-71
2021/08/22 04:11:54;;;;;;;53.23;45.20;;;17.30;99.80;;;;;;5031190;28;20046;-70
2021/08/22 04:14:20;;;;;;;46.90;38.40;;;17.30;99.80;;;;;;5032355;28;20127;-70
2021/08/22 04:16:47;;;;;;;61.73;48.00;;;17.30;99.90;;;;;;5034782;28;20096;-70
2021/08/22 04:19:12;;;;;;;66.77;48.30;;;17.30;99.90;;;;;;5035293;28;20050;-70
2021/08/22 04:21:39;;;;;;;81.03;48.70;;;17.30;99.90;;;;;;5036139;28;20494;-70
2021/08/22 04:24:05;;;;;;;49.27;37.70;;;17.30;99.90;;;;;;5035947;28;20449;-70
2021/08/22 04:26:31;;;;;;;76.77;49.47;;;17.30;99.90;;;;;;5035013;28;20140;-70
2021/08/22 04:28:57;;;;;;;65.23;48.00;;;17.30;99.90;;;;;;5035450;28;20403;-70
2021/08/22 04:31:23;;;;;;;58.23;44.80;;;17.20;99.90;;;;;;5035664;28;20056;-70
2021/08/22 04:33:48;;;;;;;63.07;47.67;;;17.20;99.90;;;;;;5034512;28;20455;-70
2021/08/22 04:36:14;;;;;;;71.10;50.77;;;17.30;99.90;;;;;;5035148;28;20064;-69
2021/08/22 04:38:40;;;;;;;69.17;50.20;;;17.20;99.90;;;;;;5034828;28;20069;-69
2021/08/22 04:41:05;;;;;;;70.87;50.37;;;17.20;99.90;;;;;;5034564;28;20053;-69
2021/08/22 04:43:31;;;;;;;75.20;52.83;;;17.20;99.90;;;;;;5035211;28;20084;-70
2021/08/22 04:45:57;;;;;;;63.37;51.67;;;17.10;99.90;;;;;;5034896;28;20049;-70
2021/08/22 04:48:23;;;;;;;71.23;51.97;;;17.10;99.90;;;;;;5034505;28;20383;-70
2021/08/22 04:50:48;;;;;;;72.93;53.07;;;17.10;99.90;;;;;;5034393;28;20123;-70
2021/08/22 04:53:14;;;;;;;64.10;50.13;;;17.10;99.90;;;;;;5036956;28;20049;-70
2021/08/22 04:55:39;;;;;;;77.47;52.57;;;17.10;99.90;;;;;;5038892;28;20095;-71
2021/08/22 04:58:06;;;;;;;62.30;51.40;;;17.10;99.90;;;;;;5048102;28;20065;-71
2021/08/22 05:00:32;;;;;;;70.47;54.47;;;17.10;99.90;;;;;;5052053;28;20053;-70
2021/08/22 05:02:58;;;;;;;84.23;55.33;;;17.10;99.90;;;;;;5053385;28;20110;-70
2021/08/22 05:05:24;;;;;;;53.70;44.07;;;17.10;99.90;;;;;;5054547;28;20041;-70
2021/08/22 05:07:49;;;;;;;72.53;53.60;;;17.10;99.90;;;;;;5050630;28;20049;-70
2021/08/22 05:10:16;;;;;;;70.53;51.27;;;17.10;99.90;;;;;;5043639;28;20202;-70
2021/08/22 05:12:42;;;;;;;65.07;51.17;;;17.10;99.90;;;;;;5044386;28;20053;-70
2021/08/22 05:15:08;;;;;;;64.77;51.70;;;17.10;99.90;;;;;;5042444;28;20042;-70
2021/08/22 05:17:34;;;;;;;74.03;54.60;;;17.10;99.90;;;;;;5043990;28;20049;-70
2021/08/22 05:20:00;;;;;;;61.40;46.83;;;17.10;99.90;;;;;;5043837;28;20099;-70
2021/08/22 05:22:25;;;;;;;50.13;42.07;;;17.10;99.90;;;;;;5042155;28;20533;-69
2021/08/22 05:24:51;;;;;;;79.33;52.40;;;17.10;99.90;;;;;;5043715;28;20033;-70
2021/08/22 05:27:16;;;;;;;52.53;44.33;;;17.10;99.90;;;;;;5042702;28;20561;-71
2021/08/22 05:29:42;;;;;;;73.63;53.60;;;17.10;99.90;;;;;;5041548;28;20072;-71
2021/08/22 05:32:08;;;;;;;70.53;53.00;;;17.10;99.90;;;;;;5044682;28;20053;-71
2021/08/22 05:34:33;;;;;;;68.67;50.57;;;17.10;99.90;;;;;;5043353;28;20087;-71
2021/08/22 05:36:59;;;;;;;66.80;45.40;;;17.10;99.90;;;;;;5047227;28;20049;-70
2021/08/22 05:39:25;;;;;;;74.97;51.97;;;17.10;99.90;;;;;;5053719;28;20053;-71
2021/08/22 05:41:57;;;;;;;70.33;55.27;;;17.10;99.90;;;;;;5053592;28;20049;-72
2021/08/22 05:44:22;;;;;;;78.37;52.73;;;17.10;99.90;;;;;;5053498;28;20103;-71
2021/08/22 05:46:48;;;;;;;58.63;48.63;;;17.10;99.90;;;;;;5054030;28;20053;-71
2021/08/22 05:49:14;;;;;;;64.43;54.07;;;17.10;99.90;;;;;;5053967;28;20049;-69
2021/08/22 05:51:42;;;;;;;67.70;53.27;;;17.20;99.90;;;;;;5052545;28;20558;-70
2021/08/22 05:54:08;;;;;;;57.43;48.07;;;17.20;99.90;;;;;;5053570;28;20377;-70
2021/08/22 05:56:34;;;;;;;60.40;50.77;;;17.20;99.90;;;;;;5053322;28;20557;-71
2021/08/22 05:59:00;;;;;;;57.33;47.47;;;17.20;99.90;;;;;;5047774;28;20136;-71
2021/08/22 06:01:25;;;;;;;57.50;50.23;;;17.20;99.90;;;;;;5049428;28;20048;-71
2021/08/22 06:03:51;;;;;;;69.33;50.53;;;17.20;99.90;;;;;;5050047;28;20448;-72
2021/08/22 06:06:17;;;;;;;66.83;52.63;;;17.20;99.90;;;;;;5048897;28;20135;-71
2021/08/22 06:08:42;;;;;;;65.83;48.67;;;17.20;99.90;;;;;;5049169;28;20045;-71
2021/08/22 06:11:08;;;;;;;62.67;52.17;;;17.20;99.90;;;;;;5048838;28;20179;-71
2021/08/22 06:13:34;;;;;;;70.37;55.23;;;17.20;99.90;;;;;;5050040;28;20041;-71
2021/08/22 06:16:07;;;;;;;58.97;50.17;;;17.20;99.90;;;;;;5049823;28;20489;-70
2021/08/22 06:18:33;;;;;;;65.27;52.07;;;17.20;99.90;;;;;;5048374;28;20095;-71
2021/08/22 06:20:59;;;;;;;55.30;49.30;;;17.20;99.90;;;;;;5049504;28;20064;-71
2021/08/22 06:23:25;;;;;;;61.53;52.23;;;17.20;99.90;;;;;;5049324;28;20049;-70
2021/08/22 06:25:51;;;;;;;54.57;48.07;;;17.30;99.90;;;;;;5048230;28;20510;-70
2021/08/22 06:28:16;;;;;;;53.77;47.70;;;17.30;99.90;;;;;;5049166;28;20083;-71
2021/08/22 06:30:42;;;;;;;55.57;49.67;;;17.30;99.90;;;;;;5049337;28;20148;-71
2021/08/22 06:33:09;;;;;;;48.03;43.03;;;17.20;99.90;;;;;;5048295;28;20045;-70
2021/08/22 06:35:35;;;;;;;51.33;46.00;;;17.20;99.90;;;;;;5048918;28;20099;-71
2021/08/22 06:38:01;;;;;;;51.20;45.80;;;17.20;99.90;;;;;;5048213;28;20155;-71
2021/08/22 06:40:27;;;;;;;48.70;43.70;;;17.20;99.90;;;;;;5048830;28;20044;-69
2021/08/22 06:42:53;;;;;;;46.07;41.60;;;17.20;99.90;;;;;;5048796;28;20839;-69
2021/08/22 06:45:19;;;;;;;50.60;44.43;;;17.20;99.90;;;;;;5048861;28;20079;-71
2021/08/22 06:47:48;;;;;;;43.10;38.63;;;17.20;99.90;;;;;;5048369;28;20057;-72
2021/08/22 06:50:14;;;;;;;45.40;40.87;;;17.20;99.90;;;;;;5048570;28;20049;-71
2021/08/22 06:52:40;;;;;;;45.03;40.63;;;17.20;99.90;;;;;;5048102;28;20087;-71
2021/08/22 06:55:06;;;;;;;49.10;44.27;;;17.20;99.90;;;;;;5047069;28;20053;-70
2021/08/22 06:57:31;;;;;;;49.43;44.60;;;17.20;99.90;;;;;;5048355;28;20093;-69
2021/08/22 06:59:57;;;;;;;49.23;44.23;;;17.20;99.90;;;;;;5048390;28;20070;-69
2021/08/22 07:02:23;;;;;;;41.53;37.23;;;17.20;99.90;;;;;;5048053;28;20061;-69
2021/08/22 07:04:48;;;;;;;49.73;44.57;;;17.20;99.90;;;;;;5047587;28;20454;-68
2021/08/22 07:07:14;;;;;;;48.67;43.33;;;17.20;99.90;;;;;;5048911;28;20055;-69
2021/08/22 07:09:40;;;;;;;46.07;41.27;;;17.30;99.90;;;;;;5047769;28;20053;-69
2021/08/22 07:12:06;;;;;;;46.27;41.60;;;17.20;99.90;;;;;;5048249;28;20140;-69
2021/08/22 07:14:32;;;;;;;44.93;40.17;;;17.20;99.90;;;;;;5048235;28;20053;-72
2021/08/22 07:16:58;;;;;;;42.13;37.93;;;17.30;99.90;;;;;;5048167;28;20049;-72
2021/08/22 07:19:27;;;;;;;49.20;43.80;;;17.30;99.90;;;;;;5047188;28;20068;-74
2021/08/22 07:21:53;;;;;;;42.47;36.43;;;17.30;99.90;;;;;;5046638;28;20056;-70
2021/08/22 07:24:18;;;;;;;50.17;40.60;;;17.20;99.90;;;;;;5048836;28;20048;-71
2021/08/22 07:26:44;;;;;;;42.70;37.23;;;17.20;99.90;;;;;;5047903;28;20056;-70
2021/08/22 07:29:10;;;;;;;46.97;41.27;;;17.30;99.90;;;;;;5047399;28;20045;-70
2021/08/22 07:31:35;;;;;;;48.10;40.10;;;17.30;99.90;;;;;;5047386;28;20045;-71
2021/08/22 07:34:01;;;;;;;49.07;40.17;;;17.20;99.90;;;;;;5047489;28;20037;-68
2021/08/22 07:36:27;;;;;;;49.73;39.93;;;17.30;99.90;;;;;;5046967;28;20044;-71
2021/08/22 07:38:52;;;;;;;51.80;41.40;;;17.30;99.90;;;;;;5047506;28;20540;-70
2021/08/22 07:41:18;;;;;;;48.47;40.67;;;17.30;99.90;;;;;;5048442;28;20099;-71
2021/08/22 07:43:44;;;;;;;55.30;43.50;;;17.30;99.90;;;;;;5047019;28;20037;-71
2021/08/22 07:46:09;;;;;;;51.87;42.87;;;17.30;99.90;;;;;;5047021;28;20132;-74
2021/08/22 07:48:36;;;;;;;69.17;48.00;;;17.30;99.90;;;;;;5047780;28;20395;-73
2021/08/22 07:51:02;;;;;;;65.57;45.97;;;17.40;99.90;;;;;;5046668;28;20387;-73
2021/08/22 07:53:27;;;;;;;61.20;44.07;;;17.40;99.90;;;;;;5047806;28;20052;-74
2021/08/22 07:55:53;;;;;;;70.20;47.43;;;17.40;99.90;;;;;;5047364;28;20049;-75
2021/08/22 07:58:19;;;;;;;71.67;48.57;;;17.50;99.90;;;;;;5044405;28;20056;-73
2021/08/22 08:00:44;;;;;;;70.10;49.10;;;17.50;99.90;;;;;;5038043;28;20478;-73
2021/08/22 08:03:10;;;;;;;77.27;48.30;;;17.50;99.90;;;;;;5034258;28;20405;-72
2021/08/22 08:05:36;;;;;;;57.13;43.97;;;17.50;99.90;;;;;;5035480;28;20107;-73
2021/08/22 08:08:02;;;;;;;60.90;41.90;;;17.60;99.90;;;;;;5030698;28;20054;-74
2021/08/22 08:10:27;;;;;;;54.00;43.57;;;17.50;99.90;;;;;;5027717;28;20112;-74
2021/08/22 08:12:53;;;;;;;56.83;43.53;;;17.60;99.90;;;;;;5026612;28;20490;-76
2021/08/22 08:15:22;;;;;;;63.93;44.43;;;17.60;99.90;;;;;;5028013;28;20050;-76
2021/08/22 08:17:48;;;;;;;81.90;46.07;;;17.60;99.90;;;;;;5031666;28;20041;-74
2021/08/22 08:20:14;;;;;;;57.07;42.73;;;17.70;99.90;;;;;;5047337;28;20455;-72
2021/08/22 08:22:39;;;;;;;57.47;43.00;;;17.70;99.90;;;;;;5046926;28;20069;-72
2021/08/22 08:25:06;;;;;;;65.50;43.60;;;17.80;99.90;;;;;;5047458;28;20363;-71
2021/08/22 08:27:34;;;;;;;53.37;40.37;;;17.70;99.90;;;;;;5047821;28;20103;-73
2021/08/22 08:30:01;;;;;;;56.43;43.33;;;17.70;99.90;;;;;;5047455;28;20045;-73
2021/08/22 08:32:26;;;;;;;61.63;42.13;;;17.70;99.90;;;;;;5045218;28;20057;-71
2021/08/22 08:34:52;;;;;;;51.37;40.13;;;17.70;99.90;;;;;;5048129;28;20516;-75
2021/08/22 08:37:19;;;;;;;55.70;41.10;;;17.70;99.90;;;;;;5047358;28;20053;-74
2021/08/22 08:39:45;;;;;;;56.07;40.07;;;17.70;99.90;;;;;;5046697;28;20422;-73
2021/08/22 08:42:21;;;;;;;50.43;38.60;;;17.80;99.90;;;;;;5048057;28;20045;-75
2021/08/22 08:44:57;;;;;;;54.13;41.03;;;17.80;99.90;;;;;;5047640;28;20053;-73
2021/08/22 08:47:31;;;;;;;59.50;42.63;;;17.90;99.90;;;;;;5046735;28;20131;-77
2021/08/22 08:50:02;;;;;;;51.57;38.27;;;17.90;99.90;;;;;;5047256;28;20053;-74
2021/08/22 08:52:44;;;;;;;51.97;39.45;;;18.00;99.90;;;;;;5047379;28;20512;-72
2021/08/22 08:55:16;;;;;;;51.23;38.47;;;18.10;99.90;;;;;;5046996;28;20126;-75
2021/08/22 08:57:41;;;;;;;;;;;18.20;99.90;;;;;;5047365;28;20417;-76
2021/08/22 09:00:15;;;;;;;51.07;39.23;;;18.30;99.90;;;;;;5046441;28;19936;-74
2021/08/22 09:02:41;;;;;;;44.53;36.97;;;18.40;99.90;;;;;;5049856;28;20051;-75
2021/08/22 09:05:14;;;;;;;46.70;39.87;;;18.50;99.90;;;;;;5051475;28;20033;-73
2021/08/22 09:08:04;;;;;;;44.13;38.47;;;18.60;99.90;;;;;;5049955;28;20057;-73
2021/08/22 09:10:58;;;;;;;44.43;34.93;;;18.80;99.90;;;;;;5050307;28;20045;-71
2021/08/22 09:13:57;;;;;;;40.73;36.40;;;19.00;99.90;;;;;;5031650;28;20056;-71
2021/08/22 09:17:02;;;;;;;39.63;35.40;;;19.10;99.90;;;;;;5049753;28;20683;-70
2021/08/22 09:19:48;;;;;;;37.67;33.37;;;19.20;99.90;;;;;;5050406;28;20080;-71
2021/08/22 09:22:33;;;;;;;33.00;29.63;;;19.20;99.90;;;;;;5050126;28;20049;-71
2021/08/22 09:25:36;;;;;;;38.17;32.90;;;19.10;99.90;;;;;;5049759;28;20552;-70
2021/08/22 09:28:35;;;;;;;40.30;34.93;;;19.10;99.90;;;;;;5046623;28;20046;-72
2021/08/22 09:31:38;;;;;;;36.50;32.53;;;19.10;99.90;;;;;;5040144;28;20172;-73
2021/08/22 09:34:32;;;;;;;35.43;31.63;;;19.00;99.90;;;;;;5040084;28;20061;-73
2021/08/22 09:37:07;;;;;;;37.37;32.30;;;18.90;99.90;;;;;;5038995;28;20045;-73
2021/08/22 09:40:16;;;;;;;43.15;36.13;;;18.90;99.90;;;;;;5039897;28;20113;-74
2021/08/22 09:43:13;;;;;;;38.47;32.90;;;18.80;99.90;;;;;;5039912;28;20045;-73
2021/08/22 09:46:15;;;;;;;45.23;37.30;;;18.80;99.90;;;;;;5039883;28;20131;-73
2021/08/22 09:48:58;;;;;;;40.60;34.33;;;18.90;99.90;;;;;;5040035;28;20533;-75
2021/08/22 09:52:00;;;;;;;30.03;27.10;;;19.00;99.90;;;;;;5039236;28;20071;-73
2021/08/22 09:55:07;;;;;;;22.33;20.23;;;19.00;99.90;;;;;;5039879;28;20516;-73
2021/08/22 09:58:17;;;;;;;19.60;17.77;;;19.10;99.90;;;;;;5022078;28;20771;-68
2021/08/22 10:00:55;;;;;;;18.47;16.77;;;19.10;99.90;;;;;;5031121;28;20107;-68
2021/08/22 10:03:36;;;;;;;14.63;13.13;;;19.10;99.90;;;;;;5028428;28;20084;-68
2021/08/22 10:06:20;;;;;;;12.50;11.23;;;19.20;99.90;;;;;;5029594;28;20045;-67
2021/08/22 10:09:06;;;;;;;11.40;10.30;;;19.10;99.90;;;;;;5033948;28;20041;-68
2021/08/22 10:11:47;;;;;;;11.00;9.90;;;19.10;99.90;;;;;;5038786;28;20040;-68
2021/08/22 10:14:13;;;;;;;8.55;7.60;;;19.10;99.90;;;;;;5038537;28;20410;-69
2021/08/22 10:16:39;;;;;;;6.87;6.27;;;19.10;99.90;;;;;;5037703;28;20041;-70
2021/08/22 10:19:06;;;;;;;6.63;6.03;;;19.10;99.80;;;;;;5037441;28;20067;-70
2021/08/22 10:21:32;;;;;;;5.87;5.07;;;19.10;99.70;;;;;;5039186;28;20521;-69
2021/08/22 10:24:01;;;;;;;6.23;5.53;;;19.10;99.60;;;;;;5037467;28;20068;-68
2021/08/22 10:26:49;;;;;;;6.37;5.77;;;19.20;99.70;;;;;;5037098;28;20094;-68
2021/08/22 10:29:16;;;;;;;5.90;5.40;;;19.20;99.60;;;;;;5034327;28;20048;-70
2021/08/22 10:31:54;;;;;;;6.00;5.40;;;19.20;99.60;;;;;;5037038;28;20395;-70
2021/08/22 10:34:20;;;;;;;5.90;5.30;;;19.30;99.50;;;;;;5037429;28;20078;-70
2021/08/22 10:36:46;;;;;;;7.37;6.67;;;19.30;99.50;;;;;;5037223;28;20098;-70
2021/08/22 10:39:26;;;;;;;7.43;6.73;;;19.30;99.60;;;;;;5037939;28;20057;-70
2021/08/22 10:41:54;;;;;;;6.67;6.07;;;19.40;99.40;;;;;;5035791;28;20042;-71
2021/08/22 10:44:39;;;;;;;9.53;7.43;;;19.50;99.40;;;;;;5038326;28;20041;-68
2021/08/22 10:47:33;;;;;;;8.83;8.03;;;19.60;99.20;;;;;;5034376;28;20045;-72
2021/08/22 10:50:00;;;;;;;8.50;7.70;;;19.70;98.90;;;;;;5033340;28;20501;-70
2021/08/22 10:52:36;;;;;;;9.47;8.57;;;19.70;98.50;;;;;;5037644;28;20057;-71
2021/08/22 10:55:14;;;;;;;10.27;9.43;;;19.90;98.40;;;;;;5037397;28;20516;-70
2021/08/22 10:57:43;;;;;;;10.53;8.60;;;20.00;98.40;;;;;;5036369;28;20045;-71
2021/08/22 11:00:28;;;;;;;8.47;7.70;;;20.20;98.40;;;;;;5036520;28;20406;-71
2021/08/22 11:03:00;;;;;;;7.93;7.13;;;20.40;97.70;;;;;;5037431;28;20154;-72
2021/08/22 11:05:30;;;;;;;8.90;6.80;;;20.60;97.20;;;;;;5036303;28;20053;-72
2021/08/22 11:08:20;;;;;;;6.25;5.75;;;20.80;96.50;;;;;;5035122;28;20049;-71
2021/08/22 11:11:00;;;;;;;6.40;5.50;;;20.90;95.80;;;;;;5037398;28;20052;-72
2021/08/22 11:13:31;;;;;;;5.28;4.78;;;20.90;95.30;;;;;;5038097;28;20049;-70
2021/08/22 11:16:02;;;;;;;5.80;5.30;;;20.80;94.80;;;;;;5035452;28;20046;-71
2021/08/22 11:18:28;;;;;;;6.85;5.72;;;20.70;94.70;;;;;;5037107;28;20065;-70
2021/08/22 11:20:54;;;;;;;6.95;6.30;;;20.60;94.70;;;;;;5037113;28;20103;-70
2021/08/22 11:23:20;;;;;;;6.03;5.43;;;20.40;94.90;;;;;;5037066;28;20049;-70
2021/08/22 11:26:08;;;;;;;6.68;6.07;;;20.30;95.10;;;;;;5035458;28;20110;-70
2021/08/22 11:28:34;;;;;;;8.13;7.30;;;20.20;95.20;;;;;;5037389;28;20041;-70
2021/08/22 11:31:00;;;;;;;7.53;6.77;;;20.10;95.60;;;;;;5036159;28;20056;-71
2021/08/22 11:33:29;;;;;;;8.77;7.87;;;19.90;96.10;;;;;;5045007;28;20466;-70
2021/08/22 11:35:55;;;;;;;8.87;7.97;;;19.80;96.20;;;;;;5045983;28;20500;-71
2021/08/22 11:38:21;;;;;;;9.77;8.88;;;19.70;96.50;;;;;;5027422;28;20049;-72
2021/08/22 11:40:47;;;;;;;9.50;8.60;;;19.60;96.80;;;;;;5027447;28;20188;-71
2021/08/22 11:43:14;;;;;;;9.20;7.33;;;19.50;97.10;;;;;;5027379;28;20056;-72
2021/08/22 11:45:44;;;;;;;7.03;6.40;;;19.40;97.10;;;;;;5027427;28;20577;-71
2021/08/22 11:48:19;;;;;;;5.28;4.78;;;19.30;97.10;;;;;;5027277;28;20672;-71
2021/08/22 11:50:46;;;;;;;4.90;4.40;;;19.30;97.00;;;;;;5026399;28;20050;-71
2021/08/22 11:53:13;;;;;;;5.17;3.40;;;19.20;96.80;;;;;;5028039;28;20111;-70
2021/08/22 11:55:39;;;;;;;4.33;3.93;;;19.20;96.60;;;;;;5027042;28;20471;-72
2021/08/22 11:58:16;;;;;;;5.30;3.77;;;19.20;96.70;;;;;;5026609;28;20046;-71
2021/08/22 12:00:43;;;;;;;3.90;3.50;;;19.30;96.80;;;;;;5027391;28;20457;-71
2021/08/22 12:03:17;;;;;;;6.43;4.20;;;19.20;96.80;;;;;;5026594;28;20077;-71
2021/08/22 12:06:07;;;;;;;3.83;3.53;;;19.30;96.90;;;;;;5026683;28;20132;-71
2021/08/22 12:08:34;;;;;;;4.50;3.57;;;19.30;96.90;;;;;;5027791;28;20064;-71
2021/08/22 12:11:31;;;;;;;5.40;3.63;;;19.30;97.00;;;;;;5032377;28;20041;-71
2021/08/22 12:13:56;;;;;;;4.80;4.03;;;19.30;96.90;;;;;;5037281;28;20106;-71
2021/08/22 12:16:33;;;;;;;4.70;4.30;;;19.30;97.60;;;;;;5029703;28;20577;-69
2021/08/22 12:19:21;;;;;;;4.83;4.43;;;19.30;97.50;;;;;;5025985;28;20408;-71
2021/08/22 12:21:47;;;;;;;4.90;4.40;;;19.30;97.60;;;;;;5029336;28;20379;-71
2021/08/22 12:24:25;;;;;;;4.17;3.77;;;19.20;98.00;;;;;;5035440;28;20096;-70
2021/08/22 12:26:56;;;;;;;4.90;4.50;;;19.30;98.00;;;;;;5037326;28;20049;-70
2021/08/22 12:29:32;;;;;;;4.70;4.30;;;19.40;98.20;;;;;;5035980;28;20049;-71
2021/08/22 12:32:13;;;;;;;6.20;5.60;;;19.40;98.20;;;;;;5034415;28;20525;-70
2021/08/22 12:34:39;;;;;;;8.23;6.10;;;19.40;98.20;;;;;;5035498;28;20076;-70
2021/08/22 12:37:20;;;;;;;6.87;6.17;;;19.50;98.20;;;;;;5039069;28;20053;-70
2021/08/22 12:39:56;;;;;;;5.85;5.32;;;19.60;98.10;;;;;;5041987;28;20037;-70
2021/08/22 12:42:22;;;;;;;8.73;6.40;;;19.70;98.10;;;;;;5046057;28;20107;-70
2021/08/22 12:44:48;;;;;;;7.83;6.80;;;19.70;98.20;;;;;;5038232;28;20351;-70